sensor_id;sensor_type;location;lat;lon;timestamp;temperature;humidity
53254;DHT22;39148;53.332;6.922;2022-10-16T00:01:57;14.10;91.60
53254;DHT22;39148;53.332;6.922;2022-10-16T00:04:22;14.10;91.50
53254;DHT22;39148;53.332;6.922;2022-10-16T00:06:48;13.90;91.50
53254;DHT22;39148;53.332;6.922;2022-10-16T00:09:14;14.00;91.60
53254;DHT22;39148;53.332;6.922;2022-10-16T00:11:40;14.00;91.50
53254;DHT22;39148;53.332;6.922;2022-10-16T00:14:12;15.20;91.90
53254;DHT22;39148;53.332;6.922;2022-10-16T00:16:39;14.00;91.70
53254;DHT22;39148;53.332;6.922;2022-10-16T00:19:05;14.00;91.60
53254;DHT22;39148;53.332;6.922;2022-10-16T00:21:31;14.00;91.60
53254;DHT22;39148;53.332;6.922;2022-10-16T00:24:03;14.00;91.60
53254;DHT22;39148;53.332;6.922;2022-10-16T00:26:30;14.00;91.70
53254;DHT22;39148;53.332;6.922;2022-10-16T00:28:57;13.90;91.60
53254;DHT22;39148;53.332;6.922;2022-10-16T00:31:23;13.90;91.60
53254;DHT22;39148;53.332;6.922;2022-10-16T00:33:50;14.00;91.70
53254;DHT22;39148;53.332;6.922;2022-10-16T00:36:19;14.00;91.60
53254;DHT22;39148;53.332;6.922;2022-10-16T00:38:45;14.00;91.70
53254;DHT22;39148;53.332;6.922;2022-10-16T00:41:14;14.00;91.60
53254;DHT22;39148;53.332;6.922;2022-10-16T00:43:50;13.90;91.70
53254;DHT22;39148;53.332;6.922;2022-10-16T00:49:08;13.90;91.20
53254;DHT22;39148;53.332;6.922;2022-10-16T00:51:40;13.90;91.70
53254;DHT22;39148;53.332;6.922;2022-10-16T00:54:19;14.00;91.70
53254;DHT22;39148;53.332;6.922;2022-10-16T00:56:46;13.90;91.20
53254;DHT22;39148;53.332;6.922;2022-10-16T00:59:37;13.90;91.60
53254;DHT22;39148;53.332;6.922;2022-10-16T01:02:05;13.90;92.20
53254;DHT22;39148;53.332;6.922;2022-10-16T01:04:35;13.90;91.70
53254;DHT22;39148;53.332;6.922;2022-10-16T01:10:21;13.80;91.30
53254;DHT22;39148;53.332;6.922;2022-10-16T01:12:52;13.90;92.20
53254;DHT22;39148;53.332;6.922;2022-10-16T01:15:32;13.90;91.70
53254;DHT22;39148;53.332;6.922;2022-10-16T01:19:01;13.80;91.20
53254;DHT22;39148;53.332;6.922;2022-10-16T01:21:02;13.80;91.80
53254;DHT22;39148;53.332;6.922;2022-10-16T01:29:09;13.90;91.20
53254;DHT22;39148;53.332;6.922;2022-10-16T01:31:39;13.90;91.80
53254;DHT22;39148;53.332;6.922;2022-10-16T01:34:10;13.90;91.70
53254;DHT22;39148;53.332;6.922;2022-10-16T01:36:49;13.80;92.20
53254;DHT22;39148;53.332;6.922;2022-10-16T01:39:18;13.80;91.10
53254;DHT22;39148;53.332;6.922;2022-10-16T01:41:51;14.40;91.80
53254;DHT22;39148;53.332;6.922;2022-10-16T01:44:24;13.90;92.20
53254;DHT22;39148;53.332;6.922;2022-10-16T01:46:51;13.80;91.70
53254;DHT22;39148;53.332;6.922;2022-10-16T01:49:18;13.80;91.60
53254;DHT22;39148;53.332;6.922;2022-10-16T01:51:46;13.80;91.60
53254;DHT22;39148;53.332;6.922;2022-10-16T01:54:14;13.80;91.70
53254;DHT22;39148;53.332;6.922;2022-10-16T01:56:41;15.00;91.90
53254;DHT22;39148;53.332;6.922;2022-10-16T01:59:11;13.70;91.60
53254;DHT22;39148;53.332;6.922;2022-10-16T02:01:41;13.80;92.20
53254;DHT22;39148;53.332;6.922;2022-10-16T02:04:16;13.70;91.70
53254;DHT22;39148;53.332;6.922;2022-10-16T02:06:43;13.60;91.10
53254;DHT22;39148;53.332;6.922;2022-10-16T02:09:09;13.70;92.10
53254;DHT22;39148;53.332;6.922;2022-10-16T02:11:35;15.10;91.90
53254;DHT22;39148;53.332;6.922;2022-10-16T02:14:05;13.90;92.20
53254;DHT22;39148;53.332;6.922;2022-10-16T02:16:42;13.80;91.70
53254;DHT22;39148;53.332;6.922;2022-10-16T02:19:08;13.80;91.20
53254;DHT22;39148;53.332;6.922;2022-10-16T02:21:51;13.80;91.60
53254;DHT22;39148;53.332;6.922;2022-10-16T02:24:31;13.60;91.80
53254;DHT22;39148;53.332;6.922;2022-10-16T02:27:10;13.70;91.10
53254;DHT22;39148;53.332;6.922;2022-10-16T02:29:42;13.70;91.20
53254;DHT22;39148;53.332;6.922;2022-10-16T02:32:11;13.70;91.70
53254;DHT22;39148;53.332;6.922;2022-10-16T02:34:39;13.70;91.60
53254;DHT22;39148;53.332;6.922;2022-10-16T02:37:06;13.80;92.10
53254;DHT22;39148;53.332;6.922;2022-10-16T02:39:33;13.70;91.60
53254;DHT22;39148;53.332;6.922;2022-10-16T02:41:59;13.70;91.60
53254;DHT22;39148;53.332;6.922;2022-10-16T02:44:25;13.80;91.60
53254;DHT22;39148;53.332;6.922;2022-10-16T02:46:51;13.70;92.10
53254;DHT22;39148;53.332;6.922;2022-10-16T02:49:16;13.60;91.60
53254;DHT22;39148;53.332;6.922;2022-10-16T02:51:43;13.70;91.60
53254;DHT22;39148;53.332;6.922;2022-10-16T02:54:09;13.70;91.60
53254;DHT22;39148;53.332;6.922;2022-10-16T02:56:34;13.60;91.60
53254;DHT22;39148;53.332;6.922;2022-10-16T02:59:00;13.60;91.50
53254;DHT22;39148;53.332;6.922;2022-10-16T03:01:26;13.80;91.60
53254;DHT22;39148;53.332;6.922;2022-10-16T03:03:51;13.70;91.60
53254;DHT22;39148;53.332;6.922;2022-10-16T03:06:17;13.60;92.10
53254;DHT22;39148;53.332;6.922;2022-10-16T03:08:43;13.60;92.20
53254;DHT22;39148;53.332;6.922;2022-10-16T03:11:08;13.70;91.60
53254;DHT22;39148;53.332;6.922;2022-10-16T03:13:34;15.00;91.90
53254;DHT22;39148;53.332;6.922;2022-10-16T03:16:00;13.70;92.10
53254;DHT22;39148;53.332;6.922;2022-10-16T03:18:25;13.60;92.20
53254;DHT22;39148;53.332;6.922;2022-10-16T03:20:51;13.60;91.60
53254;DHT22;39148;53.332;6.922;2022-10-16T03:23:20;13.70;91.60
53254;DHT22;39148;53.332;6.922;2022-10-16T03:25:45;11.40;90.60
53254;DHT22;39148;53.332;6.922;2022-10-16T03:28:11;14.10;91.70
53254;DHT22;39148;53.332;6.922;2022-10-16T03:30:37;13.60;91.60
53254;DHT22;39148;53.332;6.922;2022-10-16T03:33:05;13.60;91.60
53254;DHT22;39148;53.332;6.922;2022-10-16T03:35:31;13.60;92.10
53254;DHT22;39148;53.332;6.922;2022-10-16T03:37:57;13.60;91.60
53254;DHT22;39148;53.332;6.922;2022-10-16T03:40:22;13.60;91.60
53254;DHT22;39148;53.332;6.922;2022-10-16T03:42:48;14.90;91.90
53254;DHT22;39148;53.332;6.922;2022-10-16T03:45:14;13.70;91.60
53254;DHT22;39148;53.332;6.922;2022-10-16T03:47:40;13.60;91.60
53254;DHT22;39148;53.332;6.922;2022-10-16T03:50:06;13.50;91.60
53254;DHT22;39148;53.332;6.922;2022-10-16T03:52:32;13.50;91.40
53254;DHT22;39148;53.332;6.922;2022-10-16T03:54:58;13.50;91.60
53254;DHT22;39148;53.332;6.922;2022-10-16T03:57:24;13.60;91.60
53254;DHT22;39148;53.332;6.922;2022-10-16T03:59:50;13.70;91.60
53254;DHT22;39148;53.332;6.922;2022-10-16T04:02:16;13.60;91.60
53254;DHT22;39148;53.332;6.922;2022-10-16T04:04:42;13.60;92.10
53254;DHT22;39148;53.332;6.922;2022-10-16T04:07:07;13.60;91.60
53254;DHT22;39148;53.332;6.922;2022-10-16T04:09:33;13.60;91.60
53254;DHT22;39148;53.332;6.922;2022-10-16T04:14:25;13.50;90.90
53254;DHT22;39148;53.332;6.922;2022-10-16T04:16:50;13.50;91.60
53254;DHT22;39148;53.332;6.922;2022-10-16T04:19:16;13.50;91.60
53254;DHT22;39148;53.332;6.922;2022-10-16T04:21:42;13.50;91.50
53254;DHT22;39148;53.332;6.922;2022-10-16T04:24:07;13.60;91.60
53254;DHT22;39148;53.332;6.922;2022-10-16T04:26:33;13.50;91.60
53254;DHT22;39148;53.332;6.922;2022-10-16T04:28:59;13.60;91.60
53254;DHT22;39148;53.332;6.922;2022-10-16T04:31:24;13.60;91.60
53254;DHT22;39148;53.332;6.922;2022-10-16T04:33:50;13.50;92.10
53254;DHT22;39148;53.332;6.922;2022-10-16T04:36:15;13.50;91.60
53254;DHT22;39148;53.332;6.922;2022-10-16T04:38:41;13.60;91.60
53254;DHT22;39148;53.332;6.922;2022-10-16T04:41:07;13.50;91.60
53254;DHT22;39148;53.332;6.922;2022-10-16T04:43:33;13.60;91.60
53254;DHT22;39148;53.332;6.922;2022-10-16T04:45:59;13.50;92.20
53254;DHT22;39148;53.332;6.922;2022-10-16T04:48:25;13.60;91.60
53254;DHT22;39148;53.332;6.922;2022-10-16T04:50:51;14.30;91.70
53254;DHT22;39148;53.332;6.922;2022-10-16T04:53:16;14.40;92.00
53254;DHT22;39148;53.332;6.922;2022-10-16T04:55:43;13.50;92.20
53254;DHT22;39148;53.332;6.922;2022-10-16T04:58:09;13.50;91.60
53254;DHT22;39148;53.332;6.922;2022-10-16T05:00:35;13.60;91.60
53254;DHT22;39148;53.332;6.922;2022-10-16T05:03:01;13.50;91.50
53254;DHT22;39148;53.332;6.922;2022-10-16T05:05:31;13.50;91.60
53254;DHT22;39148;53.332;6.922;2022-10-16T05:07:56;14.30;91.80
53254;DHT22;39148;53.332;6.922;2022-10-16T05:10:22;13.50;91.60
53254;DHT22;39148;53.332;6.922;2022-10-16T05:12:48;14.70;91.80
53254;DHT22;39148;53.332;6.922;2022-10-16T05:15:14;13.60;91.60
53254;DHT22;39148;53.332;6.922;2022-10-16T05:17:40;13.50;91.60
53254;DHT22;39148;53.332;6.922;2022-10-16T05:20:06;13.30;91.50
53254;DHT22;39148;53.332;6.922;2022-10-16T05:22:32;13.50;91.50
53254;DHT22;39148;53.332;6.922;2022-10-16T05:24:57;13.50;91.60
53254;DHT22;39148;53.332;6.922;2022-10-16T05:27:23;12.60;91.40
53254;DHT22;39148;53.332;6.922;2022-10-16T05:29:49;13.40;91.50
53254;DHT22;39148;53.332;6.922;2022-10-16T05:32:15;13.50;91.60
53254;DHT22;39148;53.332;6.922;2022-10-16T05:34:42;13.60;91.70
53254;DHT22;39148;53.332;6.922;2022-10-16T05:37:07;14.90;91.90
53254;DHT22;39148;53.332;6.922;2022-10-16T05:39:33;13.50;91.60
53254;DHT22;39148;53.332;6.922;2022-10-16T05:41:59;13.50;91.60
53254;DHT22;39148;53.332;6.922;2022-10-16T05:44:25;13.40;91.60
53254;DHT22;39148;53.332;6.922;2022-10-16T05:46:50;13.40;91.60
53254;DHT22;39148;53.332;6.922;2022-10-16T05:49:16;13.50;91.60
53254;DHT22;39148;53.332;6.922;2022-10-16T05:54:09;13.40;90.90
53254;DHT22;39148;53.332;6.922;2022-10-16T05:56:34;13.60;91.70
53254;DHT22;39148;53.332;6.922;2022-10-16T05:59:00;13.40;91.60
53254;DHT22;39148;53.332;6.922;2022-10-16T06:01:25;13.50;91.60
53254;DHT22;39148;53.332;6.922;2022-10-16T06:03:52;13.40;91.60
53254;DHT22;39148;53.332;6.922;2022-10-16T06:06:20;13.40;91.70
53254;DHT22;39148;53.332;6.922;2022-10-16T06:08:47;13.60;91.80
53254;DHT22;39148;53.332;6.922;2022-10-16T06:11:24;13.40;92.20
53254;DHT22;39148;53.332;6.922;2022-10-16T06:13:52;13.40;91.20
53254;DHT22;39148;53.332;6.922;2022-10-16T06:16:18;13.40;91.70
53254;DHT22;39148;53.332;6.922;2022-10-16T06:18:44;13.40;91.70
53254;DHT22;39148;53.332;6.922;2022-10-16T06:21:18;13.50;91.70
53254;DHT22;39148;53.332;6.922;2022-10-16T06:23:44;14.30;92.00
53254;DHT22;39148;53.332;6.922;2022-10-16T06:26:14;13.40;91.70
53254;DHT22;39148;53.332;6.922;2022-10-16T06:28:40;13.50;91.80
53254;DHT22;39148;53.332;6.922;2022-10-16T06:31:08;13.40;91.70
53254;DHT22;39148;53.332;6.922;2022-10-16T06:33:34;13.40;91.70
53254;DHT22;39148;53.332;6.922;2022-10-16T06:36:04;13.40;91.70
53254;DHT22;39148;53.332;6.922;2022-10-16T06:38:31;13.40;91.70
53254;DHT22;39148;53.332;6.922;2022-10-16T06:40:56;13.40;91.70
53254;DHT22;39148;53.332;6.922;2022-10-16T06:43:22;13.40;91.70
53254;DHT22;39148;53.332;6.922;2022-10-16T06:45:55;13.40;92.30
53254;DHT22;39148;53.332;6.922;2022-10-16T06:48:22;13.30;91.30
53254;DHT22;39148;53.332;6.922;2022-10-16T06:51:09;13.50;91.80
53254;DHT22;39148;53.332;6.922;2022-10-16T06:53:38;13.90;92.00
53254;DHT22;39148;53.332;6.922;2022-10-16T06:56:15;13.40;92.30
53254;DHT22;39148;53.332;6.922;2022-10-16T06:58:42;13.80;91.90
53254;DHT22;39148;53.332;6.922;2022-10-16T07:01:08;13.40;91.70
53254;DHT22;39148;53.332;6.922;2022-10-16T07:03:43;13.70;91.80
53254;DHT22;39148;53.332;6.922;2022-10-16T07:06:10;13.40;92.20
53254;DHT22;39148;53.332;6.922;2022-10-16T07:08:39;13.40;92.40
53254;DHT22;39148;53.332;6.922;2022-10-16T07:11:07;13.20;91.80
53254;DHT22;39148;53.332;6.922;2022-10-16T07:13:34;13.40;91.80
53254;DHT22;39148;53.332;6.922;2022-10-16T07:16:14;13.40;92.30
53254;DHT22;39148;53.332;6.922;2022-10-16T07:18:40;13.90;92.00
53254;DHT22;39148;53.332;6.922;2022-10-16T07:21:10;13.40;91.80
53254;DHT22;39148;53.332;6.922;2022-10-16T07:23:37;13.40;92.40
53254;DHT22;39148;53.332;6.922;2022-10-16T07:26:03;14.90;92.10
53254;DHT22;39148;53.332;6.922;2022-10-16T07:28:29;13.40;92.00
53254;DHT22;39148;53.332;6.922;2022-10-16T07:30:59;13.40;91.80
53254;DHT22;39148;53.332;6.922;2022-10-16T07:33:25;13.40;91.80
53254;DHT22;39148;53.332;6.922;2022-10-16T07:35:51;13.40;91.80
53254;DHT22;39148;53.332;6.922;2022-10-16T07:38:18;13.40;91.90
53254;DHT22;39148;53.332;6.922;2022-10-16T07:40:44;13.50;92.20
53254;DHT22;39148;53.332;6.922;2022-10-16T07:43:10;13.40;92.40
53254;DHT22;39148;53.332;6.922;2022-10-16T07:45:36;13.40;91.80
53254;DHT22;39148;53.332;6.922;2022-10-16T07:48:02;13.40;91.80
53254;DHT22;39148;53.332;6.922;2022-10-16T07:50:27;13.50;92.40
53254;DHT22;39148;53.332;6.922;2022-10-16T07:55:19;13.40;91.10
53254;DHT22;39148;53.332;6.922;2022-10-16T07:57:45;13.40;91.80
53254;DHT22;39148;53.332;6.922;2022-10-16T08:00:11;13.50;91.90
53254;DHT22;39148;53.332;6.922;2022-10-16T08:02:41;13.50;92.50
53254;DHT22;39148;53.332;6.922;2022-10-16T08:05:07;13.40;91.90
53254;DHT22;39148;53.332;6.922;2022-10-16T08:07:33;13.40;91.80
53254;DHT22;39148;53.332;6.922;2022-10-16T08:09:59;13.40;92.40
53254;DHT22;39148;53.332;6.922;2022-10-16T08:12:25;13.50;92.40
53254;DHT22;39148;53.332;6.922;2022-10-16T08:14:51;14.30;92.10
53254;DHT22;39148;53.332;6.922;2022-10-16T08:17:17;13.40;91.90
53254;DHT22;39148;53.332;6.922;2022-10-16T08:19:46;13.50;91.90
53254;DHT22;39148;53.332;6.922;2022-10-16T08:22:16;13.40;92.00
53254;DHT22;39148;53.332;6.922;2022-10-16T08:24:41;13.50;91.40
53254;DHT22;39148;53.332;6.922;2022-10-16T08:27:07;13.70;91.90
53254;DHT22;39148;53.332;6.922;2022-10-16T08:29:34;13.50;91.90
53254;DHT22;39148;53.332;6.922;2022-10-16T08:32:00;13.60;92.50
53254;DHT22;39148;53.332;6.922;2022-10-16T08:34:25;13.50;91.90
53254;DHT22;39148;53.332;6.922;2022-10-16T08:36:53;13.60;92.60
53254;DHT22;39148;53.332;6.922;2022-10-16T08:39:19;13.50;92.00
53254;DHT22;39148;53.332;6.922;2022-10-16T08:42:21;13.50;91.90
53254;DHT22;39148;53.332;6.922;2022-10-16T08:45:19;13.50;92.60
53254;DHT22;39148;53.332;6.922;2022-10-16T08:50:39;12.70;91.40
53254;DHT22;39148;53.332;6.922;2022-10-16T08:53:06;13.90;92.10
53254;DHT22;39148;53.332;6.922;2022-10-16T08:55:43;13.50;92.20
53254;DHT22;39148;53.332;6.922;2022-10-16T08:58:18;13.50;92.30
53254;DHT22;39148;53.332;6.922;2022-10-16T09:00:51;13.50;92.10
53254;DHT22;39148;53.332;6.922;2022-10-16T09:04:01;13.70;92.50
53254;DHT22;39148;53.332;6.922;2022-10-16T09:14:45;13.60;92.20
53254;DHT22;39148;53.332;6.922;2022-10-16T09:17:39;13.60;92.60
53254;DHT22;39148;53.332;6.922;2022-10-16T09:20:14;13.80;91.70
53254;DHT22;39148;53.332;6.922;2022-10-16T09:22:42;13.60;92.60
53254;DHT22;39148;53.332;6.922;2022-10-16T09:25:16;14.10;92.10
53254;DHT22;39148;53.332;6.922;2022-10-16T09:27:51;13.60;92.10
53254;DHT22;39148;53.332;6.922;2022-10-16T09:30:19;13.60;91.50
53254;DHT22;39148;53.332;6.922;2022-10-16T09:32:48;15.00;92.30
53254;DHT22;39148;53.332;6.922;2022-10-16T09:35:25;13.60;92.10
53254;DHT22;39148;53.332;6.922;2022-10-16T09:37:54;13.60;92.70
53254;DHT22;39148;53.332;6.922;2022-10-16T09:40:32;13.70;92.00
53254;DHT22;39148;53.332;6.922;2022-10-16T09:48:39;13.80;92.60
53254;DHT22;39148;53.332;6.922;2022-10-16T09:51:26;13.70;91.60
53254;DHT22;39148;53.332;6.922;2022-10-16T09:56:29;13.70;92.10
53254;DHT22;39148;53.332;6.922;2022-10-16T09:58:57;13.70;92.10
53254;DHT22;39148;53.332;6.922;2022-10-16T10:01:48;14.00;92.20
53254;DHT22;39148;53.332;6.922;2022-10-16T10:04:14;13.80;91.80
53254;DHT22;39148;53.332;6.922;2022-10-16T10:06:44;14.40;92.20
53254;DHT22;39148;53.332;6.922;2022-10-16T10:09:21;13.80;92.10
53254;DHT22;39148;53.332;6.922;2022-10-16T10:22:25;13.80;91.70
53254;DHT22;39148;53.332;6.922;2022-10-16T10:30:30;13.90;91.60
53254;DHT22;39148;53.332;6.922;2022-10-16T10:38:49;13.90;91.60
53254;DHT22;39148;53.332;6.922;2022-10-16T10:44:25;13.90;91.50
53254;DHT22;39148;53.332;6.922;2022-10-16T10:55:25;14.10;91.50
53254;DHT22;39148;53.332;6.922;2022-10-16T10:58:10;14.00;92.00
53254;DHT22;39148;53.332;6.922;2022-10-16T11:01:07;14.10;92.00
53254;DHT22;39148;53.332;6.922;2022-10-16T11:06:44;14.00;91.40
53254;DHT22;39148;53.332;6.922;2022-10-16T11:09:18;14.10;91.90
53254;DHT22;39148;53.332;6.922;2022-10-16T11:11:56;14.10;91.40
53254;DHT22;39148;53.332;6.922;2022-10-16T11:17:32;14.20;91.80
53254;DHT22;39148;53.332;6.922;2022-10-16T11:20:26;14.10;91.30
53254;DHT22;39148;53.332;6.922;2022-10-16T11:22:58;14.20;91.30
53254;DHT22;39148;53.332;6.922;2022-10-16T11:28:19;14.30;91.20
53254;DHT22;39148;53.332;6.922;2022-10-16T11:36:39;14.20;91.10
53254;DHT22;39148;53.332;6.922;2022-10-16T11:41:45;14.90;91.70
53254;DHT22;39148;53.332;6.922;2022-10-16T11:44:18;14.30;91.60
53254;DHT22;39148;53.332;6.922;2022-10-16T11:46:58;14.30;91.50
53254;DHT22;39148;53.332;6.922;2022-10-16T11:49:27;14.40;91.60
53254;DHT22;39148;53.332;6.922;2022-10-16T11:54:38;14.40;91.50
53254;DHT22;39148;53.332;6.922;2022-10-16T12:00:27;14.50;91.00
53254;DHT22;39148;53.332;6.922;2022-10-16T12:08:35;14.50;91.00
53254;DHT22;39148;53.332;6.922;2022-10-16T12:11:54;14.50;91.30
53254;DHT22;39148;53.332;6.922;2022-10-16T12:19:21;14.50;90.90
53254;DHT22;39148;53.332;6.922;2022-10-16T12:21:48;14.50;91.30
53254;DHT22;39148;53.332;6.922;2022-10-16T12:24:36;14.50;91.20
53254;DHT22;39148;53.332;6.922;2022-10-16T12:27:19;14.50;90.90
53254;DHT22;39148;53.332;6.922;2022-10-16T12:29:47;14.60;90.70
53254;DHT22;39148;53.332;6.922;2022-10-16T12:34:52;14.70;91.20
53254;DHT22;39148;53.332;6.922;2022-10-16T12:39:55;14.60;90.70
53254;DHT22;39148;53.332;6.922;2022-10-16T12:42:23;14.70;91.10
53254;DHT22;39148;53.332;6.922;2022-10-16T12:44:49;14.70;91.10
53254;DHT22;39148;53.332;6.922;2022-10-16T12:47:37;14.60;90.90
53254;DHT22;39148;53.332;6.922;2022-10-16T12:50:27;14.70;91.10
53254;DHT22;39148;53.332;6.922;2022-10-16T12:52:53;14.90;91.10
53254;DHT22;39148;53.332;6.922;2022-10-16T12:55:20;14.70;90.90
53254;DHT22;39148;53.332;6.922;2022-10-16T13:00:59;14.70;90.50
53254;DHT22;39148;53.332;6.922;2022-10-16T13:03:59;14.80;90.90
53254;DHT22;39148;53.332;6.922;2022-10-16T13:06:28;14.70;90.50
53254;DHT22;39148;53.332;6.922;2022-10-16T13:28:15;14.90;90.30
53254;DHT22;39148;53.332;6.922;2022-10-16T13:31:01;15.10;90.90
53254;DHT22;39148;53.332;6.922;2022-10-16T13:33:41;15.00;90.90
53254;DHT22;39148;53.332;6.922;2022-10-16T13:36:20;14.90;90.40
53254;DHT22;39148;53.332;6.922;2022-10-16T13:38:46;14.90;90.60
53254;DHT22;39148;53.332;6.922;2022-10-16T13:41:18;15.00;90.50
53254;DHT22;39148;53.332;6.922;2022-10-16T13:43:52;14.90;90.60
53254;DHT22;39148;53.332;6.922;2022-10-16T13:46:22;15.30;90.70
53254;DHT22;39148;53.332;6.922;2022-10-16T13:49:02;15.00;90.50
53254;DHT22;39148;53.332;6.922;2022-10-16T13:51:30;15.00;90.10
53254;DHT22;39148;53.332;6.922;2022-10-16T13:53:57;14.90;90.50
53254;DHT22;39148;53.332;6.922;2022-10-16T13:56:28;15.00;90.50
53254;DHT22;39148;53.332;6.922;2022-10-16T13:59:32;15.00;90.50
53254;DHT22;39148;53.332;6.922;2022-10-16T14:01:58;16.00;90.80
53254;DHT22;39148;53.332;6.922;2022-10-16T14:04:28;15.00;90.40
53254;DHT22;39148;53.332;6.922;2022-10-16T14:06:56;15.00;90.40
53254;DHT22;39148;53.332;6.922;2022-10-16T14:09:29;15.10;90.30
53254;DHT22;39148;53.332;6.922;2022-10-16T14:12:01;15.00;90.50
53254;DHT22;39148;53.332;6.922;2022-10-16T14:14:38;15.10;89.90
53254;DHT22;39148;53.332;6.922;2022-10-16T14:17:05;15.20;90.50
53254;DHT22;39148;53.332;6.922;2022-10-16T14:19:32;15.10;90.30
53254;DHT22;39148;53.332;6.922;2022-10-16T14:21:59;15.10;90.30
53254;DHT22;39148;53.332;6.922;2022-10-16T14:24:35;15.20;90.40
53254;DHT22;39148;53.332;6.922;2022-10-16T14:27:01;15.10;90.40
53254;DHT22;39148;53.332;6.922;2022-10-16T14:29:28;15.20;90.40
53254;DHT22;39148;53.332;6.922;2022-10-16T14:32:05;15.20;90.40
53254;DHT22;39148;53.332;6.922;2022-10-16T14:37:26;15.10;90.30
53254;DHT22;39148;53.332;6.922;2022-10-16T14:39:53;15.10;89.80
53254;DHT22;39148;53.332;6.922;2022-10-16T14:42:21;15.10;90.30
53254;DHT22;39148;53.332;6.922;2022-10-16T14:44:50;15.10;90.30
53254;DHT22;39148;53.332;6.922;2022-10-16T14:47:19;15.20;90.30
53254;DHT22;39148;53.332;6.922;2022-10-16T14:49:51;15.20;90.30
53254;DHT22;39148;53.332;6.922;2022-10-16T14:52:17;15.20;90.30
53254;DHT22;39148;53.332;6.922;2022-10-16T14:54:43;15.20;90.20
53254;DHT22;39148;53.332;6.922;2022-10-16T14:57:24;15.10;90.30
53254;DHT22;39148;53.332;6.922;2022-10-16T14:59:52;15.30;90.40
53254;DHT22;39148;53.332;6.922;2022-10-16T15:04:46;15.10;90.30
53254;DHT22;39148;53.332;6.922;2022-10-16T15:07:12;15.20;90.30
53254;DHT22;39148;53.332;6.922;2022-10-16T15:09:38;15.20;90.20
53254;DHT22;39148;53.332;6.922;2022-10-16T15:12:03;15.10;90.20
53254;DHT22;39148;53.332;6.922;2022-10-16T15:14:29;15.30;90.20
53254;DHT22;39148;53.332;6.922;2022-10-16T15:16:55;15.20;90.20
53254;DHT22;39148;53.332;6.922;2022-10-16T15:19:20;15.20;90.20
53254;DHT22;39148;53.332;6.922;2022-10-16T15:21:47;15.20;90.40
53254;DHT22;39148;53.332;6.922;2022-10-16T15:24:13;15.30;90.30
53254;DHT22;39148;53.332;6.922;2022-10-16T15:26:40;15.30;90.30
53254;DHT22;39148;53.332;6.922;2022-10-16T15:29:05;15.20;90.20
53254;DHT22;39148;53.332;6.922;2022-10-16T15:31:31;15.30;90.30
53254;DHT22;39148;53.332;6.922;2022-10-16T15:33:57;15.20;90.30
53254;DHT22;39148;53.332;6.922;2022-10-16T15:36:28;15.30;90.30
53254;DHT22;39148;53.332;6.922;2022-10-16T15:38:55;15.20;90.30
53254;DHT22;39148;53.332;6.922;2022-10-16T15:41:21;15.10;90.20
53254;DHT22;39148;53.332;6.922;2022-10-16T15:43:50;15.30;90.30
53254;DHT22;39148;53.332;6.922;2022-10-16T15:46:21;15.30;90.40
53254;DHT22;39148;53.332;6.922;2022-10-16T15:48:51;15.30;90.40
53254;DHT22;39148;53.332;6.922;2022-10-16T15:51:21;15.30;90.40
53254;DHT22;39148;53.332;6.922;2022-10-16T15:53:46;15.30;90.30
53254;DHT22;39148;53.332;6.922;2022-10-16T15:56:13;15.20;90.30
53254;DHT22;39148;53.332;6.922;2022-10-16T15:58:39;15.20;90.30
53254;DHT22;39148;53.332;6.922;2022-10-16T16:01:05;15.30;90.30
53254;DHT22;39148;53.332;6.922;2022-10-16T16:03:32;15.30;90.30
53254;DHT22;39148;53.332;6.922;2022-10-16T16:05:58;15.30;90.40
53254;DHT22;39148;53.332;6.922;2022-10-16T16:08:28;15.80;90.40
53254;DHT22;39148;53.332;6.922;2022-10-16T16:11:01;15.30;90.30
53254;DHT22;39148;53.332;6.922;2022-10-16T16:13:27;15.20;90.40
53254;DHT22;39148;53.332;6.922;2022-10-16T16:15:53;15.30;90.30
53254;DHT22;39148;53.332;6.922;2022-10-16T16:18:19;15.30;90.30
53254;DHT22;39148;53.332;6.922;2022-10-16T16:20:44;15.30;90.30
53254;DHT22;39148;53.332;6.922;2022-10-16T16:23:10;15.30;90.30
53254;DHT22;39148;53.332;6.922;2022-10-16T16:25:36;15.30;90.30
53254;DHT22;39148;53.332;6.922;2022-10-16T16:28:02;15.30;90.30
53254;DHT22;39148;53.332;6.922;2022-10-16T16:30:27;15.30;90.30
53254;DHT22;39148;53.332;6.922;2022-10-16T16:32:53;15.30;90.30
53254;DHT22;39148;53.332;6.922;2022-10-16T16:35:19;15.30;90.30
53254;DHT22;39148;53.332;6.922;2022-10-16T16:37:44;15.30;90.30
53254;DHT22;39148;53.332;6.922;2022-10-16T16:40:11;15.30;90.50
53254;DHT22;39148;53.332;6.922;2022-10-16T16:42:37;15.20;90.30
53254;DHT22;39148;53.332;6.922;2022-10-16T16:45:03;15.30;90.30
53254;DHT22;39148;53.332;6.922;2022-10-16T16:47:29;15.30;90.20
53254;DHT22;39148;53.332;6.922;2022-10-16T16:49:54;15.20;90.30
53254;DHT22;39148;53.332;6.922;2022-10-16T16:52:20;15.20;90.30
53254;DHT22;39148;53.332;6.922;2022-10-16T16:54:47;15.30;90.30
53254;DHT22;39148;53.332;6.922;2022-10-16T16:57:18;15.30;90.30
53254;DHT22;39148;53.332;6.922;2022-10-16T16:59:44;15.20;90.30
53254;DHT22;39148;53.332;6.922;2022-10-16T17:02:10;15.20;90.30
53254;DHT22;39148;53.332;6.922;2022-10-16T17:04:35;15.40;90.30
53254;DHT22;39148;53.332;6.922;2022-10-16T17:07:01;15.60;90.30
53254;DHT22;39148;53.332;6.922;2022-10-16T17:09:27;15.20;90.30
53254;DHT22;39148;53.332;6.922;2022-10-16T17:11:52;15.40;90.30
53254;DHT22;39148;53.332;6.922;2022-10-16T17:14:18;15.20;90.30
53254;DHT22;39148;53.332;6.922;2022-10-16T17:16:44;15.20;90.30
53254;DHT22;39148;53.332;6.922;2022-10-16T17:19:12;15.20;90.20
53254;DHT22;39148;53.332;6.922;2022-10-16T17:21:39;15.20;90.40
53254;DHT22;39148;53.332;6.922;2022-10-16T17:24:05;15.30;90.40
53254;DHT22;39148;53.332;6.922;2022-10-16T17:26:31;15.20;90.30
53254;DHT22;39148;53.332;6.922;2022-10-16T17:28:59;15.20;90.30
53254;DHT22;39148;53.332;6.922;2022-10-16T17:31:28;15.20;90.40
53254;DHT22;39148;53.332;6.922;2022-10-16T17:33:54;15.20;90.40
53254;DHT22;39148;53.332;6.922;2022-10-16T17:36:21;15.20;90.40
53254;DHT22;39148;53.332;6.922;2022-10-16T17:38:47;16.40;90.70
53254;DHT22;39148;53.332;6.922;2022-10-16T17:41:15;15.30;90.40
53254;DHT22;39148;53.332;6.922;2022-10-16T17:43:41;15.20;90.50
53254;DHT22;39148;53.332;6.922;2022-10-16T17:46:08;15.10;90.40
53254;DHT22;39148;53.332;6.922;2022-10-16T17:48:42;15.10;90.50
53254;DHT22;39148;53.332;6.922;2022-10-16T17:51:11;15.10;90.50
53254;DHT22;39148;53.332;6.922;2022-10-16T17:53:37;15.10;90.50
53254;DHT22;39148;53.332;6.922;2022-10-16T17:56:12;15.10;90.50
53254;DHT22;39148;53.332;6.922;2022-10-16T17:58:39;15.10;90.60
53254;DHT22;39148;53.332;6.922;2022-10-16T18:01:26;15.00;90.50
53254;DHT22;39148;53.332;6.922;2022-10-16T18:03:57;15.00;90.80